Relevés horaires St-Hubert (Belgique)


Relevés horaires à St-Hubert - Mardi 02 Juin 2020
Heure UTC1 Température [°C] Vent [km/h] Hum. [%] Pres.4 [hPa] Visi. [Km] Nébu. [octa] Préc.5 [mm] Cond.
2m. Res. Ros. Dir.2 Vit. Moy. Raf.3
23:00 15.6 15.6 5.9 NE 5.6 7.4 13.0 52 1012.5(-0.7/3h) 45 0/8 -- --
22:00 16.5 16.5 6.7 N 7.4 9.3 13.0 52 1012.9(-0.2/3h) 45 0/8 -- --
21:00 17.1 17.1 6.6 NNO 9.3 11.1 14.8 50 1013.2(-0.1/3h) 45 0/8 -- --
20:00 19.7 19.7 6.5 N 3.7 5.6 7.4 42 1012.2(-0.8/3h) 45 0/8 -- --
19:00 21.5 21.5 6.7 N 5.6 5.6 11.1 38 1012(-1.1/3h) 40 0/8 -- --
18:00 22.9 22.9 6.5 N 5.6 9.3 13.0 35 1012(-1.4/3h) 35 0/8 0/12h
--
17:00 23.9 23.9 5.8 NO 9.3 9.3 13.0 31 1012.2(-1.7/3h) 30 0/8 -- --
16:00 24.3 24.3 4.2 NNO 3.7 5.6 11.1 27 1012.6(-1.8/3h) 35 0/8 -- --
15:00 24.8 24.8 5.9 NO 3.7 5.6 11.1 30 1013.2(-1.6/3h) 30 8/8 -- --
14:00 24.5 24.5 5.5 NNO 3.7 5.6 11.1 29 1013.9(-1.8/3h) 26 0/8 -- --
13:00 23.7 23.7 6.9 O 5.6 5.6 11.1 34 1014.7(-1.6/3h) 40 0/8 -- --
12:00 22.9 22.9 5.3 NNO 1.9 5.6 11.1 32 1015.3(-1.5/3h) 30 0/8 0/6h
--
11:00 22.2 22.2 6.8 NNO 5.6 5.6 9.3 37 1016.2(-1.1/3h) 35 0/8 -- --
10:00 21.5 21.5 6.3 NNO 3.7 5.6 9.3 37 1016.9(-0.6/3h) 24 0/8 -- --
09:00 20.8 20.8 5.5 NE 3.7 5.6 11.1 37 1017.4(-0.3/3h) 30 0/8 -- --
08:00 20.4 20.4 5.7 NE 3.7 3.7 7.4 38 1017.7(-0.2/3h) 40 0/8 -- --
07:00 18.8 18.8 8.5 SE 1.9 5.6 7.4 51 1018(0.2/3h) 35 0/8 -- --
06:00 16.6 16.6 6.8 E 3.7 7.4 9.3 52 1018.6(-0.2/3h) 35 0/8 0/12h
--
05:00 14.6 14.6 5.3 ENE 3.7 5.6 9.3 54 1019.3(-0.2/3h) 40 0/8 -- --
04:00 12.9 12.9 6.1 E 5.6 5.6 9.3 63 1019.6(-0.4/3h) 45 0/8 -- --
03:00 9.4 8.9 5.7 ENE 5.6 7.4 9.3 78 1020.5(-0.7/3h) 45 0/8 -- --
02:00 13.7 13.5 5.6 ENE 7.4 7.4 9.3 58 1019.7(-0.5/3h) 45 0/8 -- --
01:00 11.8 11.2 5.2 ENE 7.4 7.4 9.3 64 1020.4(-0.3/3h) 45 0/8 -- --
00:00 10.1 9.3 6.0 NE 7.4 7.4 11.1 76 1021(0.1/3h) 45 0/8 0/6h
0/24h
--

1 Coordinated Universal Time. Actuellement il est 07:00 locale et 05:00 UTC.

2 Le vent souffle depuis la direction indiquée vers la direction oposée.

3 Les rafales max. sont disponible 40 min après l'heure du relevé.

4 Pour les stations d'altitude (plus de 600m) le géopotentiel du niveau le plus proche de la pression obligatoire est indiqué.

5 Les stations disposant d'un diffuseur peuvent indiquer "trace". Cela signifie que des précipitations ont touchés le sol mais que la quantité est inférieure à 0.1 mm.

Récapitulatif de la journée
Température [°C] Vent [km/h] Ensoleillement4 [h] Precipitations totale5 [mm] Pression [Hpa]
Min1 Max.2 Moy.3 Max. Min Max.
9.2 25.0 6.7 14.8 0 h 0 min 0 1012.0 1021.0

1 Température minimale relevée entre 18:00 UTC la veille et 18:00 UTC le jour donné.

2 Température maximale relevée entre 06:00 UTC le jour donné et 06:00 UTC le lendemain.

3 Vent moyen de la journée basé sur les relevés horaires.

4 Ensoleillement en heures relevé entre 06:00 UTC la veille et 06:00 UTC le jour donné.

5 Précipitations totales tombées entre 06:00 UTC la jour donné et 06:00 UTC le lendemain.

Graphiques horaires